createdAt,value
2023-04-08T00:01:30.784Z,73.13
2023-04-08T00:04:00.589Z,73.07
2023-04-08T00:06:29.489Z,76.75
2023-04-08T00:08:58.101Z,81.38
2023-04-08T00:11:26.752Z,91.70
2023-04-08T00:13:55.333Z,100.00
2023-04-08T00:16:24.115Z,100.00
2023-04-08T00:18:52.793Z,100.00
2023-04-08T00:21:23.673Z,100.00
2023-04-08T00:23:51.846Z,100.00
2023-04-08T00:26:20.229Z,85.40
2023-04-08T00:28:48.869Z,88.43
2023-04-08T00:31:17.325Z,80.73
2023-04-08T00:33:46.052Z,75.34
2023-04-08T00:36:14.134Z,74.59
2023-04-08T00:38:43.813Z,77.22
2023-04-08T00:41:12.078Z,75.15
2023-04-08T00:43:40.453Z,76.23
2023-04-08T00:46:09.836Z,77.20
2023-04-08T00:48:38.152Z,73.72
2023-04-08T00:51:07.375Z,78.15
2023-04-08T00:53:35.525Z,75.00
2023-04-08T00:56:05.957Z,73.06
2023-04-08T00:58:34.349Z,75.84
2023-04-08T01:01:08.415Z,72.53
2023-04-08T01:03:42.859Z,72.35
2023-04-08T01:06:17.146Z,73.33
2023-04-08T01:08:47.375Z,77.42
2023-04-08T01:11:17.439Z,73.78
2023-04-08T01:13:47.152Z,71.27
2023-04-08T01:16:18.631Z,71.41
2023-04-08T01:18:49.821Z,72.11
2023-04-08T01:21:19.993Z,74.82
2023-04-08T01:24:03.997Z,74.81
2023-04-08T01:26:34.442Z,77.19
2023-04-08T01:29:04.479Z,76.43
2023-04-08T01:31:33.755Z,76.99
2023-04-08T01:34:04.848Z,78.68
2023-04-08T01:36:35.849Z,78.93
2023-04-08T01:39:07.400Z,84.45
2023-04-08T01:41:38.784Z,86.02
2023-04-08T01:44:08.261Z,88.23
2023-04-08T01:46:37.426Z,86.59
2023-04-08T01:49:07.916Z,85.74
2023-04-08T01:51:38.742Z,86.94
2023-04-08T01:54:07.211Z,95.86
2023-04-08T01:56:40.149Z,100.00
2023-04-08T01:59:11.471Z,100.00
2023-04-08T02:01:41.410Z,100.00
2023-04-08T02:04:10.343Z,100.00
2023-04-08T02:06:39.381Z,100.00
2023-04-08T02:09:08.195Z,100.00
2023-04-08T02:11:38.300Z,100.00
2023-04-08T02:14:07.225Z,100.00
2023-04-08T02:16:42.772Z,100.00
2023-04-08T02:19:17.205Z,100.00
2023-04-08T02:21:50.589Z,100.00
2023-04-08T02:24:19.674Z,100.00
2023-04-08T02:26:52.082Z,100.00
2023-04-08T02:29:20.706Z,100.00
2023-04-08T02:31:51.560Z,100.00
2023-04-08T02:34:22.527Z,100.00
2023-04-08T02:36:51.321Z,100.00
2023-04-08T02:39:19.694Z,100.00
2023-04-08T02:41:49.370Z,100.00
2023-04-08T02:44:17.743Z,100.00
2023-04-08T02:46:46.088Z,100.00
2023-04-08T02:49:14.423Z,100.00
2023-04-08T02:51:42.649Z,100.00
2023-04-08T02:54:11.086Z,100.00
2023-04-08T02:56:39.817Z,100.00
2023-04-08T02:59:09.327Z,100.00
2023-04-08T03:01:37.874Z,100.00
2023-04-08T03:04:07.163Z,100.00
2023-04-08T03:06:35.860Z,100.00
2023-04-08T03:09:06.560Z,100.00
2023-04-08T03:11:34.715Z,100.00
2023-04-08T03:14:03.120Z,100.00
2023-04-08T03:16:32.994Z,100.00
2023-04-08T03:19:01.472Z,100.00
2023-04-08T03:21:32.050Z,100.00
2023-04-08T03:24:00.454Z,100.00
2023-04-08T03:26:29.792Z,100.00
2023-04-08T03:28:58.233Z,100.00
2023-04-08T03:31:27.630Z,100.00
2023-04-08T03:33:57.249Z,100.00
2023-04-08T03:36:27.062Z,100.00
2023-04-08T03:38:55.278Z,100.00
2023-04-08T03:41:23.688Z,100.00
2023-04-08T03:43:52.113Z,100.00
2023-04-08T03:46:20.554Z,100.00
2023-04-08T03:48:49.140Z,100.00
2023-04-08T03:51:19.412Z,100.00
2023-04-08T03:53:48.611Z,100.00
2023-04-08T03:56:17.114Z,100.00
2023-04-08T03:58:45.224Z,100.00
2023-04-08T04:01:13.534Z,100.00
2023-04-08T04:03:42.100Z,100.00
2023-04-08T04:06:10.616Z,100.00
2023-04-08T04:08:40.335Z,100.00
2023-04-08T04:11:08.494Z,100.00
2023-04-08T04:13:37.610Z,100.00
2023-04-08T04:16:06.345Z,100.00
2023-04-08T04:18:34.949Z,100.00
2023-04-08T04:21:07.066Z,100.00
2023-04-08T04:23:35.460Z,100.00
2023-04-08T04:26:09.882Z,100.00
2023-04-08T04:28:38.407Z,100.00
2023-04-08T04:31:07.398Z,100.00
2023-04-08T04:33:35.961Z,100.00
2023-04-08T04:36:04.037Z,100.00
2023-04-08T04:38:32.498Z,100.00
2023-04-08T04:41:01.765Z,100.00
2023-04-08T04:43:31.374Z,100.00
2023-04-08T04:46:00.041Z,100.00
2023-04-08T04:48:28.558Z,100.00
2023-04-08T04:50:57.274Z,100.00
2023-04-08T04:53:25.891Z,100.00
2023-04-08T04:55:54.511Z,100.00
2023-04-08T04:58:22.734Z,100.00
2023-04-08T05:00:52.261Z,100.00
2023-04-08T05:03:20.754Z,100.00
2023-04-08T05:05:52.955Z,100.00
2023-04-08T05:08:21.792Z,100.00
2023-04-08T05:10:50.646Z,100.00
2023-04-08T05:13:19.756Z,100.00
2023-04-08T05:16:11.328Z,100.00
2023-04-08T05:18:39.407Z,100.00
2023-04-08T05:21:07.925Z,100.00
2023-04-08T05:23:36.521Z,100.00
2023-04-08T05:26:08.119Z,100.00
2023-04-08T05:28:36.837Z,100.00
2023-04-08T05:31:05.681Z,100.00
2023-04-08T05:33:35.674Z,100.00
2023-04-08T05:36:04.400Z,100.00
2023-04-08T05:38:32.880Z,100.00
2023-04-08T05:41:01.286Z,100.00
2023-04-08T05:43:29.821Z,100.00
2023-04-08T05:45:58.166Z,100.00
2023-04-08T05:48:26.761Z,100.00
2023-04-08T05:50:57.642Z,100.00
2023-04-08T05:53:26.540Z,100.00
2023-04-08T05:55:56.394Z,100.00
2023-04-08T05:58:25.384Z,100.00
2023-04-08T06:00:55.677Z,100.00
2023-04-08T06:03:24.280Z,100.00
2023-04-08T06:05:52.794Z,100.00
2023-04-08T06:08:24.194Z,100.00
2023-04-08T06:10:53.558Z,100.00
2023-04-08T06:13:22.403Z,100.00
2023-04-08T06:15:50.851Z,100.00
2023-04-08T06:18:20.092Z,100.00
2023-04-08T06:20:49.321Z,100.00
2023-04-08T06:23:18.133Z,100.00
2023-04-08T06:25:48.001Z,100.00
2023-04-08T06:28:16.335Z,100.00
2023-04-08T06:30:44.788Z,100.00
2023-04-08T06:33:13.090Z,100.00
2023-04-08T06:35:41.963Z,100.00
2023-04-08T06:38:10.754Z,100.00
2023-04-08T06:40:40.638Z,100.00
2023-04-08T06:43:11.303Z,100.00
2023-04-08T06:45:39.969Z,100.00
2023-04-08T06:48:09.751Z,100.00
2023-04-08T06:50:38.339Z,100.00
2023-04-08T06:53:07.030Z,100.00
2023-04-08T06:55:35.495Z,100.00
2023-04-08T06:58:03.704Z,100.00
2023-04-08T07:00:34.233Z,100.00
2023-04-08T07:03:03.263Z,100.00
2023-04-08T07:05:31.915Z,100.00
2023-04-08T07:08:00.236Z,100.00
2023-04-08T07:10:28.372Z,100.00
2023-04-08T07:12:56.849Z,100.00
2023-04-08T07:15:25.250Z,100.00
2023-04-08T07:17:57.220Z,100.00
2023-04-08T07:20:26.159Z,100.00
2023-04-08T07:22:55.004Z,100.00
2023-04-08T07:25:23.330Z,100.00
2023-04-08T07:27:53.225Z,100.00
2023-04-08T07:30:22.402Z,100.00
2023-04-08T07:32:51.105Z,100.00
2023-04-08T07:35:24.519Z,100.00
2023-04-08T07:37:53.247Z,100.00
2023-04-08T07:40:21.605Z,100.00
2023-04-08T07:42:50.081Z,100.00
2023-04-08T07:45:18.546Z,100.00
2023-04-08T07:47:47.485Z,100.00
2023-04-08T07:50:16.120Z,100.00
2023-04-08T07:52:46.303Z,100.00
2023-04-08T07:55:14.864Z,100.00
2023-04-08T07:57:43.782Z,100.00
2023-04-08T08:00:13.050Z,100.00
2023-04-08T08:02:41.523Z,100.00
2023-04-08T08:05:10.444Z,100.00
2023-04-08T08:07:39.158Z,100.00
2023-04-08T08:10:10.773Z,100.00
2023-04-08T08:12:40.157Z,100.00
2023-04-08T08:15:10.344Z,100.00
2023-04-08T08:17:38.828Z,100.00
2023-04-08T08:20:08.792Z,100.00
2023-04-08T08:22:50.585Z,100.00
2023-04-08T08:25:26.569Z,100.00
2023-04-08T08:27:55.672Z,100.00
2023-04-08T08:30:25.285Z,100.00
2023-04-08T08:32:53.946Z,100.00
2023-04-08T08:35:22.634Z,100.00
2023-04-08T08:37:51.506Z,100.00
2023-04-08T08:40:19.874Z,100.00
2023-04-08T08:42:53.684Z,100.00
2023-04-08T08:45:22.477Z,100.00
2023-04-08T08:47:51.567Z,100.00
2023-04-08T08:50:21.197Z,100.00
2023-04-08T08:52:54.054Z,100.00
2023-04-08T08:57:57.096Z,100.00
2023-04-08T09:00:34.559Z,100.00
2023-04-08T09:03:20.086Z,100.00
2023-04-08T09:05:55.968Z,100.00
2023-04-08T09:08:28.752Z,100.00
2023-04-08T09:10:58.592Z,100.00
2023-04-08T09:13:37.518Z,100.00
2023-04-08T09:16:09.231Z,100.00
2023-04-08T09:18:39.132Z,100.00
2023-04-08T09:21:09.234Z,100.00
2023-04-08T09:23:42.844Z,100.00
2023-04-08T09:26:13.456Z,100.00
2023-04-08T09:28:45.944Z,100.00
2023-04-08T09:31:22.531Z,100.00
2023-04-08T09:33:52.892Z,100.00
2023-04-08T09:36:23.340Z,100.00
2023-04-08T09:38:53.200Z,100.00
2023-04-08T09:41:23.629Z,100.00
2023-04-08T09:43:55.963Z,100.00
2023-04-08T09:46:30.679Z,100.00
2023-04-08T09:49:05.743Z,100.00
2023-04-08T09:51:37.982Z,100.00
2023-04-08T09:54:15.502Z,100.00
2023-04-08T09:56:50.512Z,100.00
2023-04-08T09:59:23.515Z,100.00
2023-04-08T10:01:55.762Z,100.00
2023-04-08T10:04:29.150Z,100.00
2023-04-08T10:07:03.692Z,100.00
2023-04-08T10:09:32.799Z,100.00
2023-04-08T10:12:02.511Z,100.00
2023-04-08T10:14:33.435Z,100.00
2023-04-08T10:17:27.668Z,100.00
2023-04-08T10:19:58.853Z,100.00
2023-04-08T10:22:50.012Z,100.00
2023-04-08T10:25:32.396Z,100.00
2023-04-08T10:28:01.951Z,100.00
2023-04-08T10:30:45.878Z,100.00
2023-04-08T10:33:18.818Z,100.00
2023-04-08T10:35:50.216Z,100.00
2023-04-08T10:38:19.061Z,100.00
2023-04-08T10:40:49.207Z,100.00
2023-04-08T10:43:18.376Z,100.00
2023-04-08T10:45:51.597Z,100.00
2023-04-08T10:48:22.790Z,100.00
2023-04-08T10:50:55.719Z,100.00
2023-04-08T10:53:31.290Z,100.00
2023-04-08T10:56:07.410Z,100.00
2023-04-08T10:58:36.712Z,100.00
2023-04-08T11:01:08.712Z,100.00
2023-04-08T11:03:38.150Z,100.00
2023-04-08T11:06:07.715Z,100.00
2023-04-08T11:08:38.072Z,100.00
2023-04-08T11:11:09.389Z,100.00
2023-04-08T11:13:39.431Z,100.00
2023-04-08T11:16:18.184Z,100.00
2023-04-08T11:18:48.325Z,100.00
2023-04-08T11:21:17.787Z,100.00
2023-04-08T11:23:46.751Z,100.00
2023-04-08T11:26:17.038Z,100.00
2023-04-08T11:28:47.130Z,100.00
2023-04-08T11:31:17.587Z,100.00
2023-04-08T11:33:50.241Z,100.00
2023-04-08T11:36:22.168Z,100.00
2023-04-08T11:38:50.737Z,100.00
2023-04-08T11:41:19.619Z,100.00
2023-04-08T11:43:55.472Z,100.00
2023-04-08T11:46:26.485Z,100.00
2023-04-08T11:49:06.809Z,100.00
2023-04-08T11:51:36.275Z,100.00
2023-04-08T11:54:08.326Z,100.00
2023-04-08T11:56:48.001Z,100.00
2023-04-08T11:59:16.155Z,100.00
2023-04-08T12:01:46.962Z,100.00
2023-04-08T12:04:16.688Z,100.00
2023-04-08T12:06:47.328Z,100.00
2023-04-08T12:09:16.619Z,100.00
2023-04-08T12:11:45.228Z,100.00
2023-04-08T12:14:13.799Z,100.00
2023-04-08T12:16:42.917Z,100.00
2023-04-08T12:19:13.945Z,100.00
2023-04-08T12:21:42.328Z,100.00
2023-04-08T12:24:12.024Z,100.00
2023-04-08T12:26:41.396Z,100.00
2023-04-08T12:29:12.009Z,100.00
2023-04-08T12:31:40.740Z,100.00
2023-04-08T12:34:09.023Z,100.00
2023-04-08T12:36:41.687Z,100.00
2023-04-08T12:39:10.418Z,100.00
2023-04-08T12:41:39.312Z,100.00
2023-04-08T12:44:08.108Z,100.00
2023-04-08T12:46:36.775Z,100.00
2023-04-08T12:49:06.064Z,100.00
2023-04-08T12:51:36.239Z,100.00
2023-04-08T12:54:06.769Z,100.00
2023-04-08T12:56:35.222Z,100.00
2023-04-08T12:59:04.036Z,100.00
2023-04-08T13:01:32.836Z,100.00
2023-04-08T13:04:01.467Z,100.00
2023-04-08T13:06:32.879Z,100.00
2023-04-08T13:09:02.281Z,100.00
2023-04-08T13:11:34.671Z,100.00
2023-04-08T13:14:03.694Z,100.00
2023-04-08T13:16:32.154Z,100.00
2023-04-08T13:19:01.093Z,100.00
2023-04-08T13:21:29.091Z,100.00
2023-04-08T13:23:57.346Z,100.00
2023-04-08T13:26:26.783Z,100.00
2023-04-08T13:28:58.090Z,100.00
2023-04-08T13:31:26.865Z,100.00
2023-04-08T13:33:57.933Z,100.00
2023-04-08T13:36:28.931Z,100.00
2023-04-08T13:38:57.825Z,100.00
2023-04-08T13:41:28.245Z,100.00
2023-04-08T13:43:58.561Z,100.00
2023-04-08T13:46:27.236Z,100.00
2023-04-08T13:48:55.461Z,100.00
2023-04-08T13:51:23.636Z,100.00
2023-04-08T13:53:52.121Z,100.00
2023-04-08T13:56:20.552Z,100.00
2023-04-08T13:58:56.504Z,100.00
2023-04-08T14:01:28.657Z,100.00
2023-04-08T14:03:57.930Z,100.00
2023-04-08T14:06:26.646Z,100.00
2023-04-08T14:08:54.992Z,100.00
2023-04-08T14:11:23.430Z,100.00
2023-04-08T14:13:51.760Z,100.00
2023-04-08T14:16:20.238Z,100.00
2023-04-08T14:18:50.590Z,100.00
2023-04-08T14:21:20.307Z,100.00
2023-04-08T14:23:48.526Z,100.00
2023-04-08T14:26:17.369Z,100.00
2023-04-08T14:28:46.214Z,100.00
2023-04-08T14:31:14.856Z,100.00
2023-04-08T14:33:43.968Z,100.00
2023-04-08T14:36:14.546Z,100.00
2023-04-08T14:38:44.048Z,100.00
2023-04-08T14:41:12.592Z,100.00
2023-04-08T14:43:40.939Z,100.00
2023-04-08T14:46:09.034Z,100.00
2023-04-08T14:48:37.579Z,100.00
2023-04-08T14:51:06.411Z,100.00
2023-04-08T14:53:36.619Z,100.00
2023-04-08T14:56:05.369Z,100.00
2023-04-08T14:58:33.564Z,100.00
2023-04-08T15:01:02.003Z,100.00
2023-04-08T15:03:30.676Z,100.00
2023-04-08T15:06:00.155Z,100.00
2023-04-08T15:08:29.197Z,100.00
2023-04-08T15:10:58.783Z,100.00
2023-04-08T15:13:27.560Z,100.00
2023-04-08T15:15:56.100Z,100.00
2023-04-08T15:18:24.902Z,100.00
2023-04-08T15:20:53.441Z,100.00
2023-04-08T15:23:22.220Z,100.00
2023-04-08T15:25:51.215Z,100.00
2023-04-08T15:28:21.452Z,100.00
2023-04-08T15:30:51.080Z,100.00
2023-04-08T15:33:20.201Z,100.00
2023-04-08T15:35:48.847Z,100.00
2023-04-08T15:38:17.894Z,100.00
2023-04-08T15:40:48.182Z,100.00
2023-04-08T15:43:17.129Z,100.00
2023-04-08T15:45:47.053Z,100.00
2023-04-08T15:48:15.583Z,100.00
2023-04-08T15:50:43.962Z,100.00
2023-04-08T15:53:12.440Z,100.00
2023-04-08T15:55:42.069Z,100.00
2023-04-08T15:58:11.151Z,100.00
2023-04-08T16:00:40.248Z,100.00
2023-04-08T16:03:12.196Z,100.00
2023-04-08T16:05:41.858Z,100.00
2023-04-08T16:08:10.332Z,100.00
2023-04-08T16:10:38.860Z,100.00
2023-04-08T16:13:07.862Z,100.00
2023-04-08T16:15:36.904Z,100.00
2023-04-08T16:18:06.473Z,100.00
2023-04-08T16:20:39.140Z,100.00
2023-04-08T16:23:07.531Z,100.00
2023-04-08T16:25:35.864Z,100.00
2023-04-08T16:28:04.113Z,100.00
2023-04-08T16:30:32.328Z,100.00
2023-04-08T16:33:01.055Z,100.00
2023-04-08T16:35:30.344Z,100.00
2023-04-08T16:38:00.467Z,100.00
2023-04-08T16:40:33.273Z,100.00
2023-04-08T16:43:02.139Z,100.00
2023-04-08T16:45:30.740Z,100.00
2023-04-08T16:47:59.472Z,100.00
2023-04-08T16:50:28.631Z,100.00
2023-04-08T16:53:01.238Z,100.00
2023-04-08T16:55:29.509Z,100.00
2023-04-08T16:57:58.387Z,100.00
2023-04-08T17:00:26.636Z,100.00
2023-04-08T17:02:57.852Z,100.00
2023-04-08T17:05:27.491Z,100.00
2023-04-08T17:07:57.815Z,100.00
2023-04-08T17:10:28.075Z,100.00
2023-04-08T17:12:58.301Z,100.00
2023-04-08T17:15:27.802Z,100.00
2023-04-08T17:17:56.414Z,100.00
2023-04-08T17:20:26.794Z,100.00
2023-04-08T17:22:55.252Z,100.00
2023-04-08T17:25:23.975Z,100.00
2023-04-08T17:27:54.086Z,100.00
2023-04-08T17:30:22.911Z,100.00
2023-04-08T17:32:52.105Z,100.00
2023-04-08T17:35:20.710Z,100.00
2023-04-08T17:37:50.333Z,100.00
2023-04-08T17:40:19.090Z,100.00
2023-04-08T17:42:47.729Z,100.00
2023-04-08T17:45:17.796Z,100.00
2023-04-08T17:47:46.616Z,100.00
2023-04-08T17:50:17.013Z,100.00
2023-04-08T17:52:46.360Z,100.00
2023-04-08T17:55:15.176Z,100.00
2023-04-08T17:57:43.774Z,100.00
2023-04-08T18:00:12.921Z,100.00
2023-04-08T18:02:43.082Z,100.00
2023-04-08T18:05:12.595Z,100.00
2023-04-08T18:07:41.028Z,100.00
2023-04-08T18:10:10.990Z,100.00
2023-04-08T18:12:39.485Z,100.00
2023-04-08T18:15:09.884Z,100.00
2023-04-08T18:17:38.313Z,100.00
2023-04-08T18:20:09.869Z,100.00
2023-04-08T18:22:38.309Z,100.00
2023-04-08T18:25:07.822Z,100.00
2023-04-08T18:27:36.633Z,100.00
2023-04-08T18:30:05.378Z,100.00
2023-04-08T18:32:33.774Z,100.00
2023-04-08T18:35:02.449Z,100.00
2023-04-08T18:37:32.744Z,100.00
2023-04-08T18:40:02.607Z,100.00
2023-04-08T18:42:31.238Z,100.00
2023-04-08T18:44:59.561Z,100.00
2023-04-08T18:47:28.055Z,100.00
2023-04-08T18:49:57.967Z,100.00
2023-04-08T18:52:26.250Z,100.00
2023-04-08T18:54:56.686Z,100.00
2023-04-08T18:57:24.913Z,100.00
2023-04-08T18:59:53.702Z,100.00
2023-04-08T19:02:23.019Z,100.00
2023-04-08T19:04:52.500Z,100.00
2023-04-08T19:07:21.104Z,100.00
2023-04-08T19:09:49.789Z,100.00
2023-04-08T19:12:20.786Z,100.00
2023-04-08T19:14:49.684Z,100.00
2023-04-08T19:17:18.314Z,100.00
2023-04-08T19:19:46.925Z,100.00
2023-04-08T19:22:15.582Z,100.00
2023-04-08T19:24:44.046Z,100.00
2023-04-08T19:27:14.171Z,100.00
2023-04-08T19:29:44.391Z,100.00
2023-04-08T19:32:12.888Z,100.00
2023-04-08T19:34:42.900Z,100.00
2023-04-08T19:37:11.312Z,100.00
2023-04-08T19:39:39.761Z,100.00
2023-04-08T19:42:08.128Z,100.00
2023-04-08T19:44:36.768Z,100.00
2023-04-08T19:47:07.463Z,100.00
2023-04-08T19:49:36.003Z,100.00
2023-04-08T19:52:04.524Z,100.00
2023-04-08T19:54:33.336Z,100.00
2023-04-08T19:57:01.666Z,100.00
2023-04-08T19:59:30.819Z,100.00
2023-04-08T20:01:59.812Z,100.00
2023-04-08T20:04:29.808Z,100.00
2023-04-08T20:06:58.583Z,100.00
2023-04-08T20:09:27.098Z,100.00
2023-04-08T20:11:55.709Z,100.00
2023-04-08T20:14:23.887Z,100.00
2023-04-08T20:16:52.885Z,100.00
2023-04-08T20:19:21.918Z,100.00
2023-04-08T20:21:52.048Z,100.00
2023-04-08T20:24:20.396Z,100.00
2023-04-08T20:26:48.553Z,100.00
2023-04-08T20:29:17.289Z,100.00
2023-04-08T20:31:45.999Z,100.00
2023-04-08T20:34:14.507Z,100.00
2023-04-08T20:36:43.775Z,100.00
2023-04-08T20:39:14.159Z,100.00
2023-04-08T20:41:42.865Z,100.00
2023-04-08T20:44:12.613Z,100.00
2023-04-08T20:46:41.831Z,100.00
2023-04-08T20:49:10.548Z,100.00
2023-04-08T20:51:38.686Z,100.00
2023-04-08T20:54:06.916Z,100.00
2023-04-08T20:56:37.105Z,100.00
2023-04-08T20:59:05.619Z,100.00
2023-04-08T21:01:34.032Z,100.00
2023-04-08T21:04:03.423Z,100.00
2023-04-08T21:06:32.729Z,100.00
2023-04-08T21:09:01.283Z,100.00
2023-04-08T21:11:30.438Z,100.00
2023-04-08T21:14:00.354Z,100.00
2023-04-08T21:16:29.694Z,100.00
2023-04-08T21:19:01.571Z,100.00
2023-04-08T21:21:29.878Z,100.00
2023-04-08T21:23:58.573Z,100.00
2023-04-08T21:26:27.894Z,100.00
2023-04-08T21:28:57.267Z,100.00
2023-04-08T21:31:27.889Z,100.00
2023-04-08T21:33:56.494Z,100.00
2023-04-08T21:36:24.678Z,100.00
2023-04-08T21:38:53.710Z,100.00
2023-04-08T21:41:22.331Z,100.00
2023-04-08T21:43:50.988Z,100.00
2023-04-08T21:46:19.945Z,100.00
2023-04-08T21:48:50.263Z,100.00
2023-04-08T21:51:20.116Z,100.00
2023-04-08T21:53:49.595Z,100.00
2023-04-08T21:56:19.120Z,100.00
2023-04-08T21:58:47.640Z,100.00
2023-04-08T22:01:16.179Z,100.00
2023-04-08T22:03:44.955Z,100.00
2023-04-08T22:06:22.060Z,100.00
2023-04-08T22:08:57.560Z,100.00
2023-04-08T22:11:26.014Z,100.00
2023-04-08T22:13:54.547Z,100.00
2023-04-08T22:16:22.877Z,100.00
2023-04-08T22:18:51.686Z,100.00
2023-04-08T22:21:21.941Z,100.00
2023-04-08T22:23:50.669Z,100.00
2023-04-08T22:26:19.230Z,100.00
2023-04-08T22:28:48.032Z,100.00
2023-04-08T22:31:16.956Z,100.00
2023-04-08T22:33:46.909Z,100.00
2023-04-08T22:36:15.871Z,100.00
2023-04-08T22:38:46.815Z,100.00
2023-04-08T22:41:19.295Z,100.00
2023-04-08T22:43:48.119Z,100.00
2023-04-08T22:46:18.595Z,100.00
2023-04-08T22:48:47.528Z,100.00
2023-04-08T22:51:16.431Z,100.00
2023-04-08T22:53:46.236Z,100.00
2023-04-08T22:56:14.602Z,100.00
2023-04-08T22:58:43.330Z,100.00
2023-04-08T23:01:13.966Z,100.00
2023-04-08T23:03:43.153Z,100.00
2023-04-08T23:06:11.736Z,100.00
2023-04-08T23:08:40.567Z,100.00
2023-04-08T23:11:11.061Z,100.00
2023-04-08T23:13:40.169Z,100.00
2023-04-08T23:16:09.468Z,100.00
2023-04-08T23:18:38.677Z,100.00
2023-04-08T23:21:08.023Z,100.00
2023-04-08T23:23:36.379Z,100.00
2023-04-08T23:26:05.173Z,100.00
2023-04-08T23:28:35.460Z,100.00
2023-04-08T23:31:06.309Z,100.00
2023-04-08T23:33:34.602Z,100.00
2023-04-08T23:36:03.106Z,100.00
2023-04-08T23:38:32.070Z,100.00
2023-04-08T23:41:01.589Z,100.00
2023-04-08T23:43:29.844Z,100.00
2023-04-08T23:46:00.044Z,100.00
2023-04-08T23:48:28.805Z,100.00
2023-04-08T23:50:58.264Z,100.00
2023-04-08T23:53:27.062Z,100.00
2023-04-08T23:55:55.499Z,100.00
2023-04-08T23:58:24.429Z,100.00
